createdAt,value
2024-04-17T00:00:17.110Z,2.28
2024-04-17T00:02:43.664Z,2.55
2024-04-17T00:05:12.260Z,1.70
2024-04-17T00:07:39.267Z,1.83
2024-04-17T00:10:06.069Z,2.20
2024-04-17T00:12:32.587Z,1.70
2024-04-17T00:14:59.152Z,2.55
2024-04-17T00:17:25.685Z,2.47
2024-04-17T00:19:52.331Z,2.42
2024-04-17T00:22:19.095Z,2.17
2024-04-17T00:24:45.701Z,2.03
2024-04-17T00:27:12.224Z,2.08
2024-04-17T00:29:38.846Z,1.83
2024-04-17T00:32:06.707Z,1.75
2024-04-17T00:34:33.500Z,1.77
2024-04-17T00:37:00.052Z,1.67
2024-04-17T00:39:27.577Z,2.38
2024-04-17T00:41:54.090Z,2.13
2024-04-17T00:44:20.641Z,2.55
2024-04-17T00:46:47.295Z,2.53
2024-04-17T00:49:14.130Z,2.20
2024-04-17T00:51:40.724Z,2.20
2024-04-17T00:54:07.736Z,2.17
2024-04-17T00:56:35.041Z,2.47
2024-04-17T00:59:01.800Z,3.33
2024-04-17T01:01:28.502Z,2.38
2024-04-17T01:03:55.134Z,2.40
2024-04-17T01:06:21.836Z,3.60
2024-04-17T01:08:48.349Z,2.53
2024-04-17T01:11:15.036Z,3.17
2024-04-17T01:13:41.667Z,2.08
2024-04-17T01:16:08.304Z,2.80
2024-04-17T01:18:34.909Z,2.25
2024-04-17T01:21:03.529Z,2.58
2024-04-17T01:23:30.179Z,2.08
2024-04-17T01:25:56.732Z,1.90
2024-04-17T01:28:23.325Z,2.72
2024-04-17T01:30:49.872Z,2.25
2024-04-17T01:33:16.717Z,2.70
2024-04-17T01:35:43.325Z,1.88
2024-04-17T01:38:09.922Z,2.85
2024-04-17T01:40:36.529Z,2.70
2024-04-17T01:43:03.119Z,1.92
2024-04-17T01:45:29.699Z,2.55
2024-04-17T01:47:56.344Z,2.85
2024-04-17T01:50:27.666Z,1.95
2024-04-17T01:52:54.396Z,1.97
2024-04-17T01:55:21.023Z,1.30
2024-04-17T01:57:47.621Z,1.63
2024-04-17T02:00:14.301Z,1.98
2024-04-17T02:02:40.923Z,2.20
2024-04-17T02:05:07.514Z,1.83
2024-04-17T02:07:34.188Z,1.65
2024-04-17T02:10:00.867Z,1.75
2024-04-17T02:12:27.399Z,2.33
2024-04-17T02:14:53.930Z,1.30
2024-04-17T02:17:20.588Z,1.63
2024-04-17T02:19:47.268Z,2.42
2024-04-17T02:22:13.955Z,2.10
2024-04-17T02:24:40.586Z,2.45
2024-04-17T02:27:07.161Z,2.50
2024-04-17T02:29:33.808Z,1.73
2024-04-17T02:32:00.464Z,2.20
2024-04-17T02:34:27.081Z,2.05
2024-04-17T02:36:53.710Z,2.90
2024-04-17T02:39:21.429Z,3.25
2024-04-17T02:41:47.953Z,3.20
2024-04-17T02:44:14.526Z,3.60
2024-04-17T02:46:41.173Z,3.83
2024-04-17T02:49:07.806Z,4.20
2024-04-17T02:51:34.340Z,4.95
2024-04-17T02:54:00.950Z,4.53
2024-04-17T02:56:27.489Z,3.63
2024-04-17T02:58:54.069Z,5.15
2024-04-17T03:01:20.757Z,4.40
2024-04-17T03:03:47.406Z,5.32
2024-04-17T03:06:13.985Z,4.03
2024-04-17T03:08:40.520Z,3.92
2024-04-17T03:11:07.159Z,4.82
2024-04-17T03:13:33.689Z,4.15
2024-04-17T03:16:03.417Z,4.32
2024-04-17T03:18:30.519Z,3.92
2024-04-17T03:21:00.628Z,3.67
2024-04-17T03:23:27.118Z,2.72
2024-04-17T03:25:56.713Z,4.45
2024-04-17T03:28:23.389Z,3.65
2024-04-17T03:30:50.200Z,3.22
2024-04-17T03:33:16.999Z,2.65
2024-04-17T03:35:43.906Z,3.08
2024-04-17T03:38:10.560Z,2.92
2024-04-17T03:40:37.135Z,2.53
2024-04-17T03:43:03.677Z,2.00
2024-04-17T03:45:30.197Z,2.35
2024-04-17T03:47:56.854Z,1.90
2024-04-17T03:50:23.551Z,2.00
2024-04-17T03:52:50.204Z,2.80
2024-04-17T03:55:16.740Z,2.38
2024-04-17T03:57:43.339Z,2.35
2024-04-17T04:00:10.166Z,1.98
2024-04-17T04:02:36.752Z,1.80
2024-04-17T04:05:03.447Z,1.70
2024-04-17T04:07:30.057Z,2.42
2024-04-17T04:09:56.660Z,1.63
2024-04-17T04:12:23.235Z,1.70
2024-04-17T04:14:49.756Z,2.05
2024-04-17T04:17:16.325Z,2.03
2024-04-17T04:19:44.133Z,1.35
2024-04-17T04:22:10.700Z,1.50
2024-04-17T04:24:37.382Z,1.27
2024-04-17T04:27:03.997Z,1.63
2024-04-17T04:29:30.830Z,2.60
2024-04-17T04:31:57.393Z,1.67
2024-04-17T04:34:23.923Z,1.30
2024-04-17T04:36:50.502Z,1.23
2024-04-17T04:39:17.041Z,1.60
2024-04-17T04:41:43.594Z,1.58
2024-04-17T04:44:10.113Z,1.77
2024-04-17T04:46:36.679Z,2.10
2024-04-17T04:49:03.285Z,1.10
2024-04-17T04:51:29.794Z,1.27
2024-04-17T04:53:56.318Z,1.58
2024-04-17T04:56:22.988Z,1.30
2024-04-17T04:58:49.600Z,1.75
2024-04-17T05:01:16.237Z,1.83
2024-04-17T05:03:42.782Z,1.20
2024-04-17T05:06:09.433Z,1.40
2024-04-17T05:08:36.077Z,1.85
2024-04-17T05:11:02.721Z,1.38
2024-04-17T05:13:29.297Z,1.88
2024-04-17T05:15:55.819Z,1.33
2024-04-17T05:18:22.436Z,1.90
2024-04-17T05:20:48.995Z,1.23
2024-04-17T05:23:15.526Z,1.75
2024-04-17T05:25:42.061Z,1.25
2024-04-17T05:28:08.646Z,2.03
2024-04-17T05:30:35.135Z,1.60
2024-04-17T05:33:01.892Z,1.85
2024-04-17T05:35:28.459Z,1.83
2024-04-17T05:37:55.247Z,1.30
2024-04-17T05:40:21.868Z,1.73
2024-04-17T05:42:48.424Z,1.30
2024-04-17T05:45:14.965Z,1.80
2024-04-17T05:47:41.729Z,1.70
2024-04-17T05:50:09.324Z,2.00
2024-04-17T05:52:36.170Z,2.13
2024-04-17T05:55:02.819Z,2.13
2024-04-17T05:57:29.333Z,2.30
2024-04-17T05:59:55.902Z,1.30
2024-04-17T06:02:22.436Z,1.77
2024-04-17T06:04:49.054Z,1.70
2024-04-17T06:07:15.616Z,2.17
2024-04-17T06:09:42.363Z,1.48
2024-04-17T06:12:08.915Z,1.75
2024-04-17T06:14:35.472Z,1.92
2024-04-17T06:17:02.106Z,1.85
2024-04-17T06:19:28.789Z,1.60
2024-04-17T06:21:55.359Z,1.58
2024-04-17T06:24:21.877Z,1.75
2024-04-17T06:26:48.441Z,2.20
2024-04-17T06:29:14.952Z,2.40
2024-04-17T06:31:41.692Z,1.63
2024-04-17T06:34:08.307Z,1.42
2024-04-17T06:36:34.920Z,1.60
2024-04-17T06:39:02.633Z,2.03
2024-04-17T06:41:39.089Z,1.50
2024-04-17T06:44:16.429Z,2.60
2024-04-17T06:46:43.238Z,2.15
2024-04-17T06:49:09.921Z,1.45
2024-04-17T06:51:36.517Z,2.55
2024-04-17T06:54:03.053Z,1.50
2024-04-17T06:56:29.791Z,1.77
2024-04-17T06:58:56.909Z,1.38
2024-04-17T07:01:23.706Z,2.00
2024-04-17T07:03:50.545Z,2.15
2024-04-17T07:06:17.147Z,1.40
2024-04-17T07:08:43.676Z,2.33
2024-04-17T07:11:11.455Z,2.05
2024-04-17T07:13:38.193Z,2.88
2024-04-17T07:16:04.905Z,1.45
2024-04-17T07:18:31.487Z,1.95
2024-04-17T07:20:58.071Z,2.22
2024-04-17T07:23:24.955Z,1.67
2024-04-17T07:25:51.574Z,1.73
2024-04-17T07:28:18.146Z,2.08
2024-04-17T07:30:45.565Z,1.30
2024-04-17T07:33:12.164Z,2.08
2024-04-17T07:35:39.734Z,1.45
2024-04-17T07:38:06.652Z,1.33
2024-04-17T07:40:33.333Z,1.13
2024-04-17T07:42:59.935Z,1.30
2024-04-17T07:45:26.483Z,2.28
2024-04-17T07:47:53.057Z,1.10
2024-04-17T07:50:20.024Z,1.20
2024-04-17T07:52:46.752Z,1.38
2024-04-17T07:55:13.281Z,1.15
2024-04-17T07:57:40.843Z,1.65
2024-04-17T08:00:07.795Z,1.35
2024-04-17T08:02:38.674Z,1.70
2024-04-17T08:05:05.342Z,1.55
2024-04-17T08:07:31.922Z,1.60
2024-04-17T08:09:58.501Z,1.00
2024-04-17T08:12:25.118Z,1.40
2024-04-17T08:14:52.376Z,1.33
2024-04-17T08:17:19.111Z,1.67
2024-04-17T08:19:45.736Z,1.15
2024-04-17T08:22:13.792Z,1.15
2024-04-17T08:24:40.336Z,1.75
2024-04-17T08:27:06.865Z,1.30
2024-04-17T08:29:33.372Z,1.27
2024-04-17T08:32:00.027Z,1.70
2024-04-17T08:34:26.667Z,1.13
2024-04-17T08:36:53.250Z,1.25
2024-04-17T08:39:19.830Z,1.00
2024-04-17T08:41:49.047Z,0.98
2024-04-17T08:44:17.861Z,0.50
2024-04-17T08:46:46.312Z,0.50
2024-04-17T08:49:13.919Z,1.00
2024-04-17T08:51:41.163Z,0.65
2024-04-17T08:54:07.969Z,0.45
2024-04-17T08:56:34.639Z,0.40
2024-04-17T08:59:01.363Z,0.80
2024-04-17T09:01:32.894Z,1.25
2024-04-17T09:04:00.820Z,0.95
2024-04-17T09:06:27.697Z,1.15
2024-04-17T09:08:54.309Z,1.05
2024-04-17T09:11:21.481Z,1.13
2024-04-17T09:13:48.102Z,0.95
2024-04-17T09:16:14.703Z,1.30
2024-04-17T09:18:42.324Z,1.40
2024-04-17T09:21:10.982Z,0.95
2024-04-17T09:23:37.622Z,0.90
2024-04-17T09:26:14.332Z,0.82
2024-04-17T09:28:40.935Z,1.27
2024-04-17T09:31:07.735Z,1.00
2024-04-17T09:33:34.322Z,0.80
2024-04-17T09:36:01.610Z,0.73
2024-04-17T09:38:28.193Z,1.08
2024-04-17T09:40:54.757Z,0.73
2024-04-17T09:43:29.986Z,0.57
2024-04-17T09:46:02.113Z,1.02
2024-04-17T09:48:29.640Z,0.47
2024-04-17T09:51:03.617Z,0.30
2024-04-17T09:53:38.957Z,0.40
2024-04-17T09:56:06.803Z,0.82
2024-04-17T09:58:33.924Z,0.75
2024-04-17T10:01:04.633Z,0.50
2024-04-17T10:03:32.423Z,0.63
2024-04-17T10:05:59.441Z,0.45
2024-04-17T10:08:28.135Z,0.50
2024-04-17T10:10:55.779Z,0.90
2024-04-17T10:13:25.752Z,0.75
2024-04-17T10:15:52.718Z,0.77
2024-04-17T10:18:20.017Z,0.50
2024-04-17T10:20:47.152Z,0.85
2024-04-17T10:23:14.430Z,0.47
2024-04-17T10:25:58.361Z,0.63
2024-04-17T10:28:26.263Z,0.50
2024-04-17T10:30:54.504Z,0.88
2024-04-17T10:33:28.349Z,0.70
2024-04-17T10:35:55.728Z,0.98
2024-04-17T10:38:31.767Z,0.63
2024-04-17T10:41:02.832Z,0.70
2024-04-17T10:43:32.825Z,0.68
2024-04-17T10:46:06.053Z,0.63
2024-04-17T10:50:59.199Z,0.80
2024-04-17T10:53:27.036Z,0.55
2024-04-17T10:55:54.748Z,0.70
2024-04-17T10:58:22.083Z,0.80
2024-04-17T11:00:48.698Z,0.73
2024-04-17T11:03:15.367Z,0.70
2024-04-17T11:05:41.999Z,1.20
2024-04-17T11:08:09.649Z,0.77
2024-04-17T11:10:36.816Z,0.88
2024-04-17T11:13:03.443Z,1.67
2024-04-17T11:15:30.609Z,1.23
2024-04-17T11:17:57.540Z,0.93
2024-04-17T11:20:24.233Z,0.60
2024-04-17T11:22:50.748Z,1.20
2024-04-17T11:25:17.444Z,0.88
2024-04-17T11:27:47.281Z,0.65
2024-04-17T11:30:19.915Z,0.57
2024-04-17T11:32:46.868Z,0.60
2024-04-17T11:35:16.065Z,0.60
2024-04-17T11:37:43.325Z,1.05
2024-04-17T11:40:10.376Z,0.40
2024-04-17T11:42:40.527Z,0.50
2024-04-17T11:45:08.390Z,0.50
2024-04-17T11:47:35.239Z,0.65
2024-04-17T11:50:02.267Z,0.60
2024-04-17T11:52:30.584Z,0.70
2024-04-17T11:54:57.103Z,0.50
2024-04-17T11:57:23.663Z,0.50
2024-04-17T11:59:50.221Z,0.63
2024-04-17T12:02:16.809Z,0.40
2024-04-17T12:04:44.192Z,0.43
2024-04-17T12:07:10.935Z,0.47
2024-04-17T12:09:37.481Z,0.57
2024-04-17T12:12:04.259Z,0.30
2024-04-17T12:14:30.943Z,0.70
2024-04-17T12:16:57.540Z,0.40
2024-04-17T12:19:24.091Z,0.60
2024-04-17T12:21:50.630Z,0.50
2024-04-17T12:24:21.397Z,0.47
2024-04-17T12:26:51.560Z,0.50
2024-04-17T12:29:18.778Z,0.55
2024-04-17T12:31:45.408Z,0.63
2024-04-17T12:34:12.063Z,0.70
2024-04-17T12:36:38.760Z,0.60
2024-04-17T12:39:05.320Z,0.70
2024-04-17T12:41:32.484Z,0.70
2024-04-17T12:43:59.200Z,0.70
2024-04-17T12:46:25.870Z,0.60
2024-04-17T12:48:52.474Z,0.70
2024-04-17T12:51:19.051Z,1.08
2024-04-17T12:53:45.549Z,0.60
2024-04-17T12:56:12.130Z,0.93
2024-04-17T12:58:38.736Z,0.95
2024-04-17T13:01:05.487Z,0.70
2024-04-17T13:03:32.442Z,0.80
2024-04-17T13:06:05.725Z,0.75
2024-04-17T13:08:33.011Z,0.40
2024-04-17T13:11:02.792Z,0.60
2024-04-17T13:13:29.531Z,0.50
2024-04-17T13:15:56.722Z,0.80
2024-04-17T13:18:23.608Z,0.65
2024-04-17T13:20:54.382Z,0.68
2024-04-17T13:23:21.139Z,0.50
2024-04-17T13:25:57.896Z,0.60
2024-04-17T13:28:25.092Z,0.60
2024-04-17T13:30:58.104Z,0.50
2024-04-17T13:33:25.416Z,0.77
2024-04-17T13:35:55.831Z,0.50
2024-04-17T13:38:22.503Z,0.77
2024-04-17T13:41:18.624Z,0.68
2024-04-17T13:43:45.766Z,0.55
2024-04-17T13:46:12.813Z,0.85
2024-04-17T13:48:39.719Z,0.82
2024-04-17T13:51:07.062Z,0.73
2024-04-17T13:53:33.849Z,0.90
2024-04-17T13:56:00.919Z,0.52
2024-04-17T13:58:30.865Z,0.85
2024-04-17T14:00:57.704Z,0.60
2024-04-17T14:03:24.899Z,0.77
2024-04-17T14:05:52.095Z,0.98
2024-04-17T14:08:20.091Z,0.95
2024-04-17T14:10:47.582Z,0.98
2024-04-17T14:13:14.111Z,0.70
2024-04-17T14:15:43.032Z,0.63
2024-04-17T14:18:10.192Z,0.63
2024-04-17T14:20:37.315Z,0.60
2024-04-17T14:23:03.963Z,0.70
2024-04-17T14:25:30.514Z,0.60
2024-04-17T14:27:57.552Z,0.70
2024-04-17T14:30:24.145Z,1.10
2024-04-17T14:32:50.857Z,0.80
2024-04-17T14:35:17.524Z,0.93
2024-04-17T14:37:44.081Z,0.63
2024-04-17T14:40:10.602Z,0.65
2024-04-17T14:42:37.223Z,0.90
2024-04-17T14:45:05.351Z,1.00
2024-04-17T14:47:32.105Z,0.65
2024-04-17T14:49:58.789Z,0.82
2024-04-17T14:52:25.315Z,0.82
2024-04-17T14:54:51.899Z,0.90
2024-04-17T14:57:19.294Z,0.82
2024-04-17T14:59:45.883Z,0.93
2024-04-17T15:02:12.461Z,1.10
2024-04-17T15:04:39.021Z,0.60
2024-04-17T15:07:05.548Z,0.70
2024-04-17T15:09:32.159Z,0.80
2024-04-17T15:11:59.455Z,0.88
2024-04-17T15:14:26.087Z,0.70
2024-04-17T15:16:52.626Z,0.85
2024-04-17T15:19:19.292Z,0.88
2024-04-17T15:21:45.897Z,0.57
2024-04-17T15:24:17.853Z,0.90
2024-04-17T15:29:11.172Z,0.90
2024-04-17T15:31:38.070Z,0.88
2024-04-17T15:34:05.033Z,1.02
2024-04-17T15:36:31.658Z,0.60
2024-04-17T15:38:58.524Z,0.70
2024-04-17T15:41:25.089Z,0.70
2024-04-17T15:43:52.953Z,0.90
2024-04-17T15:46:25.574Z,0.88
2024-04-17T15:48:52.639Z,1.23
2024-04-17T15:51:19.505Z,1.20
2024-04-17T15:53:47.621Z,0.80
2024-04-17T15:56:14.959Z,0.80
2024-04-17T15:58:41.634Z,0.70
2024-04-17T16:01:08.609Z,0.90
2024-04-17T16:03:36.108Z,0.63
2024-04-17T16:06:03.989Z,0.50
2024-04-17T16:08:30.498Z,0.85
2024-04-17T16:10:57.810Z,0.70
2024-04-17T16:13:24.365Z,1.52
2024-04-17T16:15:51.194Z,1.15
2024-04-17T16:18:19.672Z,0.90
2024-04-17T16:20:46.893Z,0.80
2024-04-17T16:23:14.021Z,1.25
2024-04-17T16:25:40.542Z,0.90
2024-04-17T16:28:07.157Z,1.35
2024-04-17T16:30:33.829Z,0.88
2024-04-17T16:33:00.980Z,0.80
2024-04-17T16:35:27.512Z,1.30
2024-04-17T16:37:54.045Z,1.25
2024-04-17T16:40:20.836Z,1.40
2024-04-17T16:42:47.746Z,0.80
2024-04-17T16:45:14.643Z,0.95
2024-04-17T16:47:41.459Z,1.65
2024-04-17T16:50:08.123Z,1.92
2024-04-17T16:52:34.672Z,2.83
2024-04-17T16:55:01.207Z,1.63
2024-04-17T16:57:27.762Z,1.00
2024-04-17T16:59:54.371Z,1.65
2024-04-17T17:02:22.189Z,1.10
2024-04-17T17:04:48.807Z,1.23
2024-04-17T17:07:15.358Z,0.88
2024-04-17T17:09:42.015Z,1.50
2024-04-17T17:12:08.929Z,1.10
2024-04-17T17:14:35.479Z,0.93
2024-04-17T17:17:02.040Z,0.80
2024-04-17T17:19:28.609Z,1.00
2024-04-17T17:21:55.189Z,1.05
2024-04-17T17:24:21.957Z,1.15
2024-04-17T17:26:48.517Z,0.73
2024-04-17T17:29:15.322Z,0.73
2024-04-17T17:31:44.079Z,0.95
2024-04-17T17:34:10.774Z,0.98
2024-04-17T17:36:37.360Z,0.80
2024-04-17T17:39:16.018Z,1.10
2024-04-17T17:41:48.176Z,0.82
2024-04-17T17:44:14.795Z,1.10
2024-04-17T17:46:43.095Z,0.77
2024-04-17T17:49:09.819Z,1.63
2024-04-17T17:51:36.580Z,1.00
2024-04-17T17:54:03.205Z,1.10
2024-04-17T17:56:29.736Z,0.70
2024-04-17T17:58:57.941Z,1.27
2024-04-17T18:01:25.075Z,0.90
2024-04-17T18:03:52.610Z,0.73
2024-04-17T18:06:19.575Z,0.98
2024-04-17T18:08:46.729Z,1.00
2024-04-17T18:11:13.890Z,1.40
2024-04-17T18:13:40.506Z,1.23
2024-04-17T18:16:12.521Z,0.80
2024-04-17T18:18:46.482Z,1.20
2024-04-17T18:21:14.495Z,0.80
2024-04-17T18:23:42.005Z,0.85
2024-04-17T18:26:12.060Z,0.70
2024-04-17T18:28:38.832Z,0.60
2024-04-17T18:31:05.937Z,0.80
2024-04-17T18:33:33.034Z,1.17
2024-04-17T18:35:59.594Z,1.42
2024-04-17T18:38:26.101Z,1.00
2024-04-17T18:40:56.216Z,0.95
2024-04-17T18:43:22.722Z,0.47
2024-04-17T18:45:49.280Z,0.60
2024-04-17T18:48:15.850Z,0.63
2024-04-17T18:50:42.468Z,1.00
2024-04-17T18:53:08.972Z,1.10
2024-04-17T18:55:35.499Z,0.77
2024-04-17T18:58:02.018Z,0.98
2024-04-17T19:00:28.583Z,1.48
2024-04-17T19:02:55.621Z,1.27
2024-04-17T19:05:22.981Z,3.75
2024-04-17T19:07:49.578Z,1.73
2024-04-17T19:10:16.140Z,1.75
2024-04-17T19:12:43.242Z,0.80
2024-04-17T19:15:09.926Z,0.57
2024-04-17T19:17:36.576Z,0.80
2024-04-17T19:20:03.217Z,2.13
2024-04-17T19:22:29.770Z,1.20
2024-04-17T19:24:56.273Z,0.90
2024-04-17T19:27:22.828Z,0.75
2024-04-17T19:29:58.889Z,0.95
2024-04-17T19:32:32.562Z,0.98
2024-04-17T19:34:59.204Z,1.23
2024-04-17T19:37:25.744Z,0.90
2024-04-17T19:39:52.263Z,0.70
2024-04-17T19:42:25.786Z,1.05
2024-04-17T19:44:54.975Z,0.75
2024-04-17T19:47:21.573Z,0.70
2024-04-17T19:49:48.263Z,0.60
2024-04-17T19:52:14.996Z,1.52
2024-04-17T19:54:41.944Z,0.90
2024-04-17T19:57:10.362Z,0.73
2024-04-17T19:59:36.972Z,0.90
2024-04-17T20:02:04.946Z,1.00
2024-04-17T20:04:32.386Z,1.05
2024-04-17T20:06:59.439Z,1.45
2024-04-17T20:09:26.128Z,1.60
2024-04-17T20:11:52.663Z,1.05
2024-04-17T20:14:19.257Z,1.38
2024-04-17T20:16:45.923Z,2.10
2024-04-17T20:19:12.611Z,1.90
2024-04-17T20:21:39.517Z,1.77
2024-04-17T20:24:06.308Z,1.42
2024-04-17T20:26:32.953Z,2.00
2024-04-17T20:29:03.591Z,1.85
2024-04-17T20:31:33.019Z,1.75
2024-04-17T20:34:00.231Z,1.10
2024-04-17T20:36:27.600Z,1.08
2024-04-17T20:38:54.205Z,1.20
2024-04-17T20:41:20.920Z,1.70
2024-04-17T20:43:47.556Z,0.98
2024-04-17T20:46:17.547Z,1.08
2024-04-17T20:48:45.520Z,0.93
2024-04-17T20:51:12.424Z,0.90
2024-04-17T20:53:39.645Z,0.90
2024-04-17T20:56:06.676Z,0.65
2024-04-17T20:58:33.516Z,0.60
2024-04-17T21:01:01.088Z,0.85
2024-04-17T21:03:28.261Z,0.50
2024-04-17T21:05:59.905Z,0.68
2024-04-17T21:08:26.438Z,0.60
2024-04-17T21:10:56.390Z,0.75
2024-04-17T21:13:22.919Z,0.80
2024-04-17T21:15:49.461Z,0.90
2024-04-17T21:18:16.197Z,0.60
2024-04-17T21:20:42.824Z,1.05
2024-04-17T21:23:11.391Z,1.08
2024-04-17T21:25:38.176Z,0.70
2024-04-17T21:28:04.720Z,1.00
2024-04-17T21:30:31.756Z,0.73
2024-04-17T21:32:58.476Z,0.68
2024-04-17T21:35:25.029Z,0.80
2024-04-17T21:37:51.600Z,1.02
2024-04-17T21:40:18.125Z,0.90
2024-04-17T21:42:44.758Z,0.90
2024-04-17T21:45:13.789Z,0.70
2024-04-17T21:47:40.575Z,0.70
2024-04-17T21:50:07.212Z,0.77
2024-04-17T21:52:33.727Z,0.60
2024-04-17T21:55:02.724Z,0.82
2024-04-17T21:57:29.473Z,0.75
2024-04-17T21:59:56.011Z,1.02
2024-04-17T22:02:22.558Z,0.98
2024-04-17T22:04:49.151Z,1.10
2024-04-17T22:07:15.768Z,0.73
2024-04-17T22:09:42.413Z,0.88
2024-04-17T22:12:09.029Z,1.30
2024-04-17T22:14:35.603Z,1.25
2024-04-17T22:17:02.107Z,1.25
2024-04-17T22:19:28.683Z,1.23
2024-04-17T22:21:55.279Z,1.30
2024-04-17T22:24:21.808Z,1.27
2024-04-17T22:26:48.523Z,1.70
2024-04-17T22:29:15.055Z,1.42
2024-04-17T22:31:41.598Z,1.52
2024-04-17T22:34:08.131Z,1.05
2024-04-17T22:36:34.706Z,1.20
2024-04-17T22:39:01.257Z,1.33
2024-04-17T22:41:27.774Z,1.60
2024-04-17T22:43:54.305Z,1.10
2024-04-17T22:46:20.815Z,1.80
2024-04-17T22:48:47.371Z,1.50
2024-04-17T22:51:13.973Z,1.42
2024-04-17T22:53:40.527Z,1.30
2024-04-17T22:56:07.236Z,1.67
2024-04-17T22:58:33.746Z,1.40
2024-04-17T23:01:00.477Z,1.20
2024-04-17T23:03:27.287Z,1.27
2024-04-17T23:05:53.882Z,1.30
2024-04-17T23:08:20.423Z,1.83
2024-04-17T23:10:57.287Z,1.77
2024-04-17T23:13:24.214Z,1.85
2024-04-17T23:15:50.752Z,1.95
2024-04-17T23:18:17.470Z,1.98
2024-04-17T23:20:44.424Z,1.85
2024-04-17T23:23:11.268Z,1.73
2024-04-17T23:25:37.784Z,1.35
2024-04-17T23:28:04.421Z,2.45
2024-04-17T23:30:31.067Z,1.80
2024-04-17T23:32:57.661Z,2.10
2024-04-17T23:35:24.331Z,1.77
2024-04-17T23:37:50.847Z,1.60
2024-04-17T23:40:17.375Z,2.20
2024-04-17T23:42:43.978Z,1.83
2024-04-17T23:45:10.532Z,2.00
2024-04-17T23:47:37.214Z,1.98
2024-04-17T23:50:03.928Z,2.28
2024-04-17T23:52:30.501Z,2.17
2024-04-17T23:54:57.012Z,1.77
2024-04-17T23:57:23.605Z,2.30
2024-04-17T23:59:50.257Z,2.58
